Monte Alto, Brazil
Current Conditions -  °F | °C
As of 4:00 PM on Sunday 21 Dec 2014 (Local Time) from SBRP Reporting Station
Thunderstorm Thunderstorm  
Wind Chill: 77°   Ceiling: 10000
Heat Index: 78°   Visibility: 3mi
Dew Point: 72°   Wind: 9mph
Humidity: 83%   Direction: 280°W
Pressure: 29.85"   Gusts: 21mph
Location:  21.26°S, 48.5°W
Report Text: SBRP 211800Z 28008G18KT 5000 TSRA SCT030 FEW035CB BKN100 25/22 Q1011
Loading
Personal Weather Stations






























Interactive Weather Map New forecast layout! Learn more

10-Day Weather Forecast

Advertisements
Track Severe Weather on mobile